ROMMA est une association bénévole à but non lucratif. Votre soutien est indispensable : ADHERER à ROMMA ou FAIRE un DON

St-Etienne-du-Bois - (01, Ain)

La Bresse (243 m)   Longitude: 5° 16' 47'' E   Latitude: 46° 17' 46'' N Station partenaire n°17
 

Détail journalier du     <<     >>

Température Precipitation Humidité Pression Vent Dir Rafale Dir. rafale Ensol.
Heure (°C) (mm) (%) (hPa) (km/h) (km/h) (min)
01:00 6.209210031SSO8SSO0
02:00 5.909210021SSO10SE0
03:00 5.709110021SE8SE0
04:00 5.909010011S8SSO0
05:00 7.308610003SE16S0
06:00 8.4081100013SSO39S0
07:00 7.61.288100018SSO44SSO0
08:00 7.51.291100011S35SSO0
09:00 8.6086100018SSO40SO0
10:00 9.2085100119SSO47S0
11:00 8.80.289100316SSO40S0
12:00 9.7089100312SSO27S0
13:00 9.8088100310SSO24S0
14:00 10.308610037SSO18S0
15:00 10.408610034S11S0
16:00 10.208810031SSO11SSO0
17:00 8.908810032SSO11S0
18:00 7.6090100302SSO0
19:00 6.8091100302SSO0
20:00 6.2091100303SSO0
21:00 5.3093100300---0
22:00 5.0094100305SSO0
23:00 5.7095100303SSO0
minuit 6.30.495100203SSO0

Graphique du 07-11-2019

 

Serveur OMMA